createdAt,value
2023-01-07T00:02:05.163Z,100.00
2023-01-07T00:08:07.235Z,100.00
2023-01-07T00:14:12.613Z,100.00
2023-01-07T00:20:14.575Z,100.00
2023-01-07T00:26:20.484Z,100.00
2023-01-07T00:32:42.322Z,100.00
2023-01-07T00:38:44.399Z,100.00
2023-01-07T00:44:46.358Z,100.00
2023-01-07T00:50:49.818Z,100.00
2023-01-07T00:56:51.744Z,100.00
2023-01-07T01:02:53.883Z,100.00
2023-01-07T01:08:55.861Z,100.00
2023-01-07T01:14:57.783Z,100.00
2023-01-07T01:21:10.551Z,100.00
2023-01-07T01:27:12.458Z,100.00
2023-01-07T01:33:14.353Z,100.00
2023-01-07T01:39:16.313Z,100.00
2023-01-07T01:45:18.295Z,100.00
2023-01-07T01:51:24.336Z,100.00
2023-01-07T01:57:29.039Z,100.00
2023-01-07T02:03:35.215Z,100.00
2023-01-07T02:09:37.362Z,100.00
2023-01-07T02:16:02.771Z,100.00
2023-01-07T02:22:32.508Z,100.00
2023-01-07T02:29:21.487Z,100.00
2023-01-07T02:35:45.901Z,100.00
2023-01-07T02:41:58.329Z,100.00
2023-01-07T02:48:12.059Z,100.00
2023-01-07T02:54:26.920Z,100.00
2023-01-07T03:01:23.536Z,100.00
2023-01-07T03:07:40.314Z,100.00
2023-01-07T03:14:15.029Z,100.00
2023-01-07T03:20:20.634Z,100.00
2023-01-07T03:26:29.885Z,100.00
2023-01-07T03:32:42.559Z,100.00
2023-01-07T03:38:46.448Z,100.00
2023-01-07T03:44:49.476Z,100.00
2023-01-07T03:50:51.433Z,100.00
2023-01-07T03:56:53.346Z,100.00
2023-01-07T04:02:55.320Z,100.00
2023-01-07T04:08:57.192Z,100.00
2023-01-07T04:14:59.396Z,100.00
2023-01-07T04:21:01.366Z,100.00
2023-01-07T04:27:03.737Z,100.00
2023-01-07T04:33:07.044Z,100.00
2023-01-07T04:39:08.950Z,100.00
2023-01-07T04:45:11.376Z,100.00
2023-01-07T04:51:13.282Z,100.00
2023-01-07T04:57:15.221Z,100.00
2023-01-07T05:03:17.266Z,100.00
2023-01-07T05:09:19.144Z,100.00
2023-01-07T05:15:21.045Z,100.00
2023-01-07T05:21:22.985Z,100.00
2023-01-07T05:27:24.885Z,100.00
2023-01-07T05:33:26.785Z,100.00
2023-01-07T05:39:28.720Z,100.00
2023-01-07T05:45:30.597Z,100.00
2023-01-07T05:51:32.494Z,100.00
2023-01-07T05:57:34.462Z,100.00
2023-01-07T06:03:36.454Z,100.00
2023-01-07T06:09:38.400Z,100.00
2023-01-07T06:15:40.340Z,100.00
2023-01-07T06:21:42.244Z,100.00
2023-01-07T06:27:44.117Z,100.00
2023-01-07T06:33:46.021Z,100.00
2023-01-07T06:39:47.923Z,100.00
2023-01-07T06:45:49.827Z,100.00
2023-01-07T06:51:51.772Z,100.00
2023-01-07T06:57:53.810Z,100.00
2023-01-07T07:03:55.697Z,100.00
2023-01-07T07:09:57.577Z,100.00
2023-01-07T07:15:59.552Z,100.00
2023-01-07T07:22:03.287Z,100.00
2023-01-07T07:28:06.463Z,100.00
2023-01-07T07:34:10.698Z,100.00
2023-01-07T07:40:13.055Z,100.00
2023-01-07T07:46:15.681Z,100.00
2023-01-07T07:52:18.833Z,100.00
2023-01-07T07:58:21.098Z,99.90
2023-01-07T08:04:23.026Z,98.73
2023-01-07T08:10:27.742Z,98.76
2023-01-07T08:16:29.740Z,99.10
2023-01-07T08:22:33.254Z,97.63
2023-01-07T08:28:35.568Z,97.30
2023-01-07T08:34:37.427Z,96.88
2023-01-07T08:40:39.552Z,97.14
2023-01-07T08:46:42.820Z,97.47
2023-01-07T08:52:47.382Z,97.30
2023-01-07T08:58:49.365Z,97.46
2023-01-07T09:04:51.263Z,97.67
2023-01-07T09:10:53.237Z,97.27
2023-01-07T09:16:55.225Z,96.13
2023-01-07T09:22:57.638Z,96.51
2023-01-07T09:28:59.573Z,95.83
2023-01-07T09:35:01.633Z,95.61
2023-01-07T09:41:03.628Z,94.64
2023-01-07T09:47:06.388Z,95.27
2023-01-07T09:53:20.760Z,95.42
2023-01-07T09:59:22.780Z,93.48
2023-01-07T10:06:09.424Z,93.35
2023-01-07T10:12:51.044Z,92.03
2023-01-07T10:19:13.211Z,91.72
2023-01-07T10:25:36.791Z,91.02
2023-01-07T10:31:39.463Z,90.39
2023-01-07T10:37:43.669Z,90.42
2023-01-07T10:44:03.595Z,89.87
2023-01-07T10:50:33.071Z,89.71
2023-01-07T10:56:50.787Z,89.54
2023-01-07T11:02:59.659Z,88.42
2023-01-07T11:09:06.289Z,86.11
2023-01-07T11:15:29.825Z,83.54
2023-01-07T11:21:48.591Z,83.86
2023-01-07T11:27:52.866Z,82.60
2023-01-07T11:34:02.336Z,83.95
2023-01-07T11:40:14.875Z,82.85
2023-01-07T11:46:21.769Z,83.66
2023-01-07T11:52:24.009Z,84.70
2023-01-07T11:58:33.594Z,84.74
2023-01-07T12:04:37.238Z,85.33
2023-01-07T12:10:39.647Z,85.30
2023-01-07T12:16:42.847Z,83.80
2023-01-07T12:23:32.810Z,85.64
2023-01-07T12:29:54.428Z,83.94
2023-01-07T12:36:06.510Z,83.55
2023-01-07T12:42:28.112Z,82.07
2023-01-07T12:48:45.429Z,82.15
2023-01-07T12:55:02.383Z,81.97
2023-01-07T13:02:00.611Z,83.17
2023-01-07T13:08:22.282Z,82.21
2023-01-07T13:14:40.258Z,83.04
2023-01-07T13:21:08.161Z,82.36
2023-01-07T13:28:06.017Z,82.32
2023-01-07T13:34:38.313Z,79.50
2023-01-07T13:41:11.369Z,80.94
2023-01-07T13:47:17.784Z,81.23
2023-01-07T13:53:19.566Z,80.42
2023-01-07T13:59:46.845Z,81.19
2023-01-07T14:05:48.748Z,81.90
2023-01-07T14:12:35.907Z,82.52
2023-01-07T14:19:07.576Z,82.28
2023-01-07T14:25:53.945Z,82.00
2023-01-07T14:32:26.201Z,83.39
2023-01-07T14:38:33.965Z,83.90
2023-01-07T14:44:35.880Z,85.06
2023-01-07T14:50:55.602Z,85.13
2023-01-07T14:57:17.504Z,85.83
2023-01-07T15:03:59.873Z,85.49
2023-01-07T15:10:45.169Z,87.68
2023-01-07T15:16:50.186Z,88.48
2023-01-07T15:23:26.730Z,87.38
2023-01-07T15:29:56.573Z,87.76
2023-01-07T15:35:58.582Z,88.36
2023-01-07T15:42:02.015Z,88.83
2023-01-07T15:48:12.635Z,89.05
2023-01-07T15:54:31.149Z,88.66
2023-01-07T16:00:34.877Z,89.29
2023-01-07T16:06:39.313Z,89.54
2023-01-07T16:12:48.028Z,89.26
2023-01-07T16:19:01.172Z,89.01
2023-01-07T16:25:12.327Z,90.37
2023-01-07T16:31:17.975Z,90.07
2023-01-07T16:37:20.477Z,90.36
2023-01-07T16:43:40.361Z,88.79
2023-01-07T16:49:42.287Z,88.90
2023-01-07T16:55:53.398Z,88.15
2023-01-07T17:01:56.867Z,88.18
2023-01-07T17:08:05.604Z,87.87
2023-01-07T17:14:38.352Z,86.65
2023-01-07T17:20:49.456Z,86.71
2023-01-07T17:26:51.802Z,87.12
2023-01-07T17:32:53.754Z,86.54
2023-01-07T17:38:55.655Z,85.47
2023-01-07T17:44:57.523Z,85.85
2023-01-07T17:51:01.336Z,84.89
2023-01-07T17:57:03.345Z,85.45
2023-01-07T18:03:05.290Z,85.61
2023-01-07T18:09:08.620Z,86.89
2023-01-07T18:15:26.382Z,85.18
2023-01-07T18:21:28.301Z,86.85
2023-01-07T18:27:30.192Z,86.18
2023-01-07T18:33:33.727Z,85.97
2023-01-07T18:39:36.591Z,85.97
2023-01-07T18:45:44.032Z,85.76
2023-01-07T18:51:47.216Z,87.47
2023-01-07T18:57:49.097Z,85.71
2023-01-07T19:03:51.605Z,86.62
2023-01-07T19:09:53.559Z,86.83
2023-01-07T19:15:55.451Z,87.12
2023-01-07T19:21:57.504Z,85.95
2023-01-07T19:27:59.460Z,86.99
2023-01-07T19:34:04.805Z,86.30
2023-01-07T19:40:07.631Z,86.28
2023-01-07T19:46:11.502Z,85.28
2023-01-07T19:52:13.725Z,85.01
2023-01-07T19:58:16.407Z,85.53
2023-01-07T20:04:18.621Z,87.04
2023-01-07T20:10:20.494Z,87.79
2023-01-07T20:16:24.016Z,86.69
2023-01-07T20:22:25.944Z,87.15
2023-01-07T20:28:28.800Z,86.99
2023-01-07T20:34:30.685Z,87.42
2023-01-07T20:40:32.576Z,87.02
2023-01-07T20:46:34.847Z,86.95
2023-01-07T20:52:37.010Z,86.55
2023-01-07T20:58:40.029Z,86.84
2023-01-07T21:04:42.023Z,87.64
2023-01-07T21:10:44.228Z,87.02
2023-01-07T21:16:46.434Z,87.03
2023-01-07T21:22:48.391Z,86.81
2023-01-07T21:28:56.001Z,86.69
2023-01-07T21:34:58.142Z,87.72
2023-01-07T21:41:00.047Z,87.44
2023-01-07T21:47:01.992Z,87.61
2023-01-07T21:53:03.885Z,86.91
2023-01-07T21:59:07.930Z,87.77
2023-01-07T22:05:10.319Z,88.18
2023-01-07T22:11:17.881Z,88.90
2023-01-07T22:17:19.950Z,89.38
2023-01-07T22:23:22.138Z,88.65
2023-01-07T22:29:24.643Z,87.87
2023-01-07T22:35:28.286Z,88.34
2023-01-07T22:41:33.720Z,89.41
2023-01-07T22:47:39.631Z,89.43
2023-01-07T22:53:41.708Z,90.08
2023-01-07T22:59:45.236Z,89.71
2023-01-07T23:05:49.936Z,90.07
2023-01-07T23:11:52.059Z,89.08
2023-01-07T23:17:55.277Z,89.26
2023-01-07T23:23:57.305Z,89.72
2023-01-07T23:29:59.307Z,89.36
2023-01-07T23:36:06.877Z,89.17
2023-01-07T23:42:08.826Z,89.73
2023-01-07T23:48:10.707Z,90.72
2023-01-07T23:54:12.743Z,91.51
